createdAt,value
2022-09-11T06:14:31.663Z,5.37
2022-09-11T06:24:31.878Z,5.98
2022-09-11T06:34:31.725Z,5.99
2022-09-11T06:44:31.909Z,3.41
2022-09-11T06:54:31.880Z,2.64
2022-09-11T07:04:31.904Z,3.33
2022-09-11T07:14:31.800Z,3.31
2022-09-11T07:24:31.810Z,4.20
2022-09-11T07:34:31.834Z,3.74
2022-09-11T07:44:31.948Z,3.06
2022-09-11T07:54:31.873Z,1.10
2022-09-11T08:04:32.088Z,4.49
2022-09-11T08:14:31.862Z,3.42
2022-09-11T08:24:31.995Z,1.55
2022-09-11T08:34:32.031Z,2.84
2022-09-11T08:44:34.191Z,3.72
2022-09-11T08:54:32.303Z,3.98
2022-09-11T09:04:32.123Z,4.74
2022-09-11T09:14:32.204Z,1.81
2022-09-11T09:24:32.058Z,2.37
2022-09-11T09:34:32.301Z,5.09
2022-09-11T09:44:32.008Z,5.19
2022-09-11T09:54:31.992Z,3.56
2022-09-11T10:04:33.258Z,6.00
2022-09-11T10:14:50.440Z,4.39
2022-09-11T10:24:32.262Z,5.17
2022-09-11T10:34:32.099Z,3.51
2022-09-11T10:44:32.329Z,5.14
2022-09-11T10:54:32.141Z,7.20
2022-09-11T11:04:32.205Z,6.43
2022-09-11T11:14:32.141Z,7.07
2022-09-11T11:24:32.393Z,4.60
2022-09-11T11:34:32.294Z,6.06
2022-09-11T11:44:32.264Z,4.99
2022-09-11T11:54:32.280Z,5.32
2022-09-11T12:04:32.268Z,6.37
2022-09-11T12:14:32.359Z,6.30
2022-09-11T12:24:32.422Z,3.05
2022-09-11T12:34:32.346Z,0.00
2022-09-11T12:44:32.333Z,0.13
2022-09-11T12:54:32.464Z,9.01
2022-09-11T13:04:32.265Z,5.30
2022-09-11T13:14:32.408Z,7.24
2022-09-11T13:24:32.319Z,7.88
2022-09-11T13:34:32.432Z,0.00
2022-09-11T13:44:32.467Z,0.00
2022-09-11T13:54:32.361Z,0.00
2022-09-11T14:04:32.428Z,2.34
2022-09-11T14:14:32.332Z,8.06
2022-09-11T14:24:32.527Z,8.50
2022-09-11T14:34:32.348Z,6.37
2022-09-11T14:44:32.518Z,6.62
2022-09-11T14:54:32.481Z,0.00
2022-09-11T15:04:32.461Z,0.00
2022-09-11T15:14:54.823Z,0.00
2022-09-11T15:24:32.573Z,0.00
2022-09-11T15:34:32.522Z,0.00
2022-09-11T15:44:32.608Z,0.00
2022-09-11T15:54:32.662Z,0.00
2022-09-11T16:04:32.556Z,0.00
2022-09-11T16:14:32.589Z,0.00
2022-09-11T16:24:32.543Z,0.00
2022-09-11T16:34:32.861Z,0.59
2022-09-11T16:44:32.621Z,4.49
2022-09-11T16:54:32.777Z,3.07
2022-09-11T17:04:32.745Z,1.97
2022-09-11T17:14:32.696Z,0.96
2022-09-11T17:24:32.760Z,1.32
2022-09-11T17:34:32.562Z,1.96
2022-09-11T17:44:32.639Z,0.90
2022-09-11T17:54:32.632Z,1.02
2022-09-11T18:04:32.830Z,2.31
2022-09-11T18:14:32.779Z,2.83
2022-09-11T18:24:32.838Z,4.41
2022-09-11T18:34:33.122Z,4.03
2022-09-11T18:44:32.617Z,3.22
2022-09-11T18:54:32.898Z,1.74
2022-09-11T19:04:32.977Z,0.29
2022-09-11T19:14:33.164Z,1.77
